createdAt,value
2018-08-11T00:00:28.365Z,17.23
2018-08-11T00:02:58.376Z,17.10
2018-08-11T00:05:26.971Z,17.14
2018-08-11T00:07:55.561Z,16.86
2018-08-11T00:10:24.107Z,17.15
2018-08-11T00:12:52.714Z,17.52
2018-08-11T00:15:21.821Z,17.46
2018-08-11T00:17:50.559Z,17.14
2018-08-11T00:20:25.049Z,17.40
2018-08-11T00:22:53.680Z,17.48
2018-08-11T00:25:22.724Z,17.38
2018-08-11T00:27:52.113Z,17.11
2018-08-11T00:30:21.529Z,17.00
2018-08-11T00:32:50.695Z,16.86
2018-08-11T00:35:19.584Z,16.78
2018-08-11T00:37:48.230Z,16.68
2018-08-11T00:40:19.030Z,16.52
2018-08-11T00:42:48.612Z,16.43
2018-08-11T00:45:18.351Z,16.54
2018-08-11T00:47:47.545Z,16.54
2018-08-11T00:50:20.004Z,16.56
2018-08-11T00:52:49.474Z,16.71
2018-08-11T00:55:18.353Z,16.74
2018-08-11T00:57:47.324Z,16.27
2018-08-11T01:00:18.040Z,16.25
2018-08-11T01:02:46.667Z,16.03
2018-08-11T01:05:17.395Z,15.92
2018-08-11T01:07:46.780Z,16.05
2018-08-11T01:10:15.845Z,16.59
2018-08-11T01:12:45.171Z,16.51
2018-08-11T01:15:15.978Z,16.67
2018-08-11T01:17:45.952Z,16.49
2018-08-11T01:20:15.175Z,16.27
2018-08-11T01:22:44.680Z,16.35
2018-08-11T01:25:14.534Z,16.25
2018-08-11T01:27:43.220Z,16.10
2018-08-11T01:30:18.362Z,15.92
2018-08-11T01:32:47.547Z,15.99
2018-08-11T01:35:16.507Z,15.93
2018-08-11T01:37:45.583Z,15.87
2018-08-11T01:40:15.589Z,15.78
2018-08-11T01:42:46.128Z,15.94
2018-08-11T01:45:15.561Z,15.93
2018-08-11T01:47:44.711Z,15.88
2018-08-11T01:50:14.844Z,16.00
2018-08-11T01:52:45.236Z,15.87
2018-08-11T01:55:15.870Z,16.01
2018-08-11T01:57:44.838Z,16.18
2018-08-11T02:00:15.351Z,16.56
2018-08-11T02:02:43.955Z,16.79
2018-08-11T02:05:13.665Z,16.88
2018-08-11T02:07:44.165Z,17.29
2018-08-11T02:10:15.331Z,17.06
2018-08-11T02:12:44.129Z,16.91
2018-08-11T02:15:14.036Z,16.79
2018-08-11T02:17:42.684Z,16.90
2018-08-11T02:20:13.867Z,17.12
2018-08-11T02:22:43.625Z,17.25
2018-08-11T02:25:12.670Z,17.39
2018-08-11T02:27:41.681Z,17.27
2018-08-11T02:30:13.016Z,17.16
2018-08-11T02:32:42.137Z,17.45
2018-08-11T02:35:11.748Z,17.44
2018-08-11T02:37:41.059Z,17.72
2018-08-11T02:40:11.397Z,17.41
2018-08-11T02:42:40.291Z,16.95
2018-08-11T02:45:11.401Z,17.22
2018-08-11T02:47:40.111Z,17.13
2018-08-11T02:50:10.287Z,16.61
2018-08-11T02:52:40.175Z,16.47
2018-08-11T02:55:09.181Z,16.38
2018-08-11T02:57:37.763Z,16.58
2018-08-11T03:00:08.922Z,17.27
2018-08-11T03:02:37.883Z,17.57
2018-08-11T03:05:06.362Z,17.81
2018-08-11T03:07:35.754Z,17.79
2018-08-11T03:10:04.837Z,17.19
2018-08-11T03:12:33.852Z,16.89
2018-08-11T03:15:02.679Z,16.93
2018-08-11T03:17:31.269Z,16.39
2018-08-11T03:19:59.870Z,16.52
2018-08-11T03:22:28.441Z,16.90
2018-08-11T03:24:57.768Z,16.95
2018-08-11T03:27:26.545Z,16.67
2018-08-11T03:29:55.153Z,16.60
2018-08-11T03:32:23.700Z,16.50
2018-08-11T03:34:52.217Z,16.42
2018-08-11T03:37:21.115Z,16.67
2018-08-11T03:39:50.025Z,16.83
2018-08-11T03:42:20.239Z,16.64
2018-08-11T03:44:49.102Z,16.66
2018-08-11T03:47:17.882Z,16.94
2018-08-11T03:49:46.521Z,16.67
2018-08-11T03:52:15.086Z,16.82
2018-08-11T03:54:43.717Z,17.01
2018-08-11T03:57:12.271Z,16.66
2018-08-11T03:59:41.897Z,16.59
2018-08-11T04:02:11.122Z,16.68
2018-08-11T04:04:41.185Z,16.50
2018-08-11T04:07:09.976Z,16.46
2018-08-11T04:09:38.952Z,16.49
2018-08-11T04:12:07.695Z,16.58
2018-08-11T04:14:36.657Z,16.28
2018-08-11T04:17:05.390Z,16.36
2018-08-11T04:19:34.086Z,16.52
2018-08-11T04:22:03.796Z,16.49
2018-08-11T04:24:33.099Z,16.44
2018-08-11T04:27:01.618Z,16.34
2018-08-11T04:29:30.489Z,16.06
2018-08-11T04:31:59.344Z,16.11
2018-08-11T04:34:28.574Z,16.11
2018-08-11T04:36:57.092Z,15.94
2018-08-11T04:39:26.585Z,16.11
2018-08-11T04:41:55.438Z,15.90
2018-08-11T04:44:24.435Z,15.93
2018-08-11T04:46:53.408Z,15.99
2018-08-11T04:49:21.962Z,15.97
2018-08-11T04:51:50.893Z,16.16
2018-08-11T04:54:19.451Z,16.36
2018-08-11T04:56:47.965Z,16.43
2018-08-11T04:59:17.266Z,16.54
2018-08-11T05:01:45.801Z,16.16
2018-08-11T05:04:14.353Z,16.13
2018-08-11T05:06:42.934Z,15.95
2018-08-11T05:09:11.571Z,15.93
2018-08-11T05:11:40.278Z,15.87
2018-08-11T05:14:08.828Z,15.82
2018-08-11T05:16:37.592Z,16.02
2018-08-11T05:19:06.482Z,15.86
2018-08-11T05:21:35.453Z,15.82
2018-08-11T05:24:04.022Z,15.79
2018-08-11T05:26:34.060Z,15.72
2018-08-11T05:29:03.123Z,15.61
2018-08-11T05:31:31.684Z,15.86
2018-08-11T05:34:00.260Z,16.03
2018-08-11T05:36:28.964Z,16.09
2018-08-11T05:38:58.092Z,16.09
2018-08-11T05:41:27.180Z,16.03
2018-08-11T05:43:56.785Z,16.12
2018-08-11T05:46:25.330Z,16.28
2018-08-11T05:48:54.551Z,16.30
2018-08-11T05:51:23.085Z,16.40
2018-08-11T05:53:51.861Z,16.44
2018-08-11T05:56:20.856Z,16.56
2018-08-11T05:58:50.449Z,16.60
2018-08-11T06:01:18.986Z,16.84
2018-08-11T06:03:47.803Z,16.84
2018-08-11T06:06:16.784Z,16.99
2018-08-11T06:08:45.589Z,17.01
2018-08-11T06:11:15.785Z,16.86
2018-08-11T06:13:45.527Z,16.97
2018-08-11T06:16:15.563Z,16.72
2018-08-11T06:18:44.589Z,16.67
2018-08-11T06:21:13.135Z,16.64
2018-08-11T06:23:44.055Z,16.47
2018-08-11T06:26:12.598Z,16.41
2018-08-11T06:28:41.650Z,16.51
2018-08-11T06:31:10.529Z,16.22
2018-08-11T06:33:40.123Z,16.42
2018-08-11T06:36:09.010Z,16.51
2018-08-11T06:38:38.559Z,16.63
2018-08-11T06:41:07.128Z,16.65
2018-08-11T06:43:35.717Z,16.77
2018-08-11T06:46:04.283Z,16.84
2018-08-11T06:48:32.816Z,16.91
2018-08-11T06:51:02.253Z,17.02
2018-08-11T06:53:31.248Z,16.88
2018-08-11T06:56:01.058Z,16.67
2018-08-11T06:58:30.366Z,16.74
2018-08-11T07:01:01.145Z,16.95
2018-08-11T07:03:29.717Z,17.13
2018-08-11T07:05:58.595Z,17.18
2018-08-11T07:08:27.267Z,17.38
2018-08-11T07:10:56.057Z,16.87
2018-08-11T07:13:24.949Z,17.06
2018-08-11T07:15:53.523Z,17.26
2018-08-11T07:18:22.793Z,17.33
2018-08-11T07:20:51.357Z,17.39
2018-08-11T07:23:21.658Z,17.33
2018-08-11T07:25:50.536Z,17.44
2018-08-11T07:28:19.615Z,17.34
2018-08-11T07:30:48.921Z,17.58
2018-08-11T07:33:17.479Z,17.67
2018-08-11T07:35:46.384Z,17.91
2018-08-11T07:38:14.985Z,17.65
2018-08-11T07:40:43.588Z,17.72
2018-08-11T07:43:12.559Z,17.50
2018-08-11T07:45:42.273Z,17.93
2018-08-11T07:48:11.260Z,17.83
2018-08-11T07:50:39.822Z,18.05
2018-08-11T07:53:08.397Z,18.22
2018-08-11T07:55:37.661Z,18.42
2018-08-11T07:58:07.093Z,18.50
2018-08-11T08:00:36.038Z,18.50
2018-08-11T08:03:04.970Z,18.52
2018-08-11T08:05:33.671Z,18.10
2018-08-11T08:08:02.529Z,17.98
2018-08-11T08:10:31.965Z,17.82
2018-08-11T08:13:00.806Z,18.02
2018-08-11T08:15:29.516Z,17.98
2018-08-11T08:17:58.069Z,18.36
2018-08-11T08:20:26.677Z,18.55
2018-08-11T08:22:55.236Z,18.54
2018-08-11T08:25:23.823Z,18.73
2018-08-11T08:27:52.609Z,18.92
2018-08-11T08:30:22.383Z,18.81
2018-08-11T08:32:51.421Z,19.01
2018-08-11T08:35:20.068Z,19.25
2018-08-11T08:37:48.879Z,19.33
2018-08-11T08:40:18.292Z,19.25
2018-08-11T08:42:47.640Z,19.50
2018-08-11T08:45:17.588Z,19.47
2018-08-11T08:47:46.118Z,19.54
2018-08-11T08:50:14.701Z,19.50
2018-08-11T08:52:43.513Z,19.18
2018-08-11T08:55:12.097Z,19.31
2018-08-11T08:57:42.304Z,19.53
2018-08-11T09:00:11.317Z,19.50
2018-08-11T09:02:41.478Z,20.08
2018-08-11T09:05:10.029Z,20.49
2018-08-11T09:07:38.599Z,20.44
2018-08-11T09:10:08.051Z,20.61
2018-08-11T09:12:37.056Z,20.48
2018-08-11T09:15:06.357Z,20.63
2018-08-11T09:17:35.880Z,20.45
2018-08-11T09:20:05.562Z,20.76
2018-08-11T09:22:34.600Z,20.22
2018-08-11T09:25:03.901Z,20.44
2018-08-11T09:27:32.825Z,19.99
2018-08-11T09:30:01.823Z,19.70
2018-08-11T09:32:30.573Z,19.70
2018-08-11T09:35:00.072Z,19.94
2018-08-11T09:37:28.631Z,20.42
2018-08-11T09:39:57.204Z,20.65
2018-08-11T09:42:26.076Z,20.90
2018-08-11T09:44:55.460Z,20.85
2018-08-11T09:47:24.292Z,20.57
2018-08-11T09:49:53.244Z,20.15
2018-08-11T09:52:22.228Z,20.20
2018-08-11T09:54:50.770Z,19.84
2018-08-11T09:57:20.226Z,19.66
2018-08-11T09:59:48.751Z,19.79
2018-08-11T10:02:20.641Z,19.94
2018-08-11T10:04:49.246Z,19.96
2018-08-11T10:07:18.264Z,19.84
2018-08-11T10:09:47.221Z,19.85
2018-08-11T10:12:16.213Z,20.42
2018-08-11T10:14:44.750Z,20.79
2018-08-11T10:17:14.498Z,20.96
2018-08-11T10:19:43.021Z,21.35
2018-08-11T10:22:11.606Z,21.59
2018-08-11T10:24:40.753Z,21.66
2018-08-11T10:27:09.663Z,21.84
2018-08-11T10:29:38.647Z,21.74
2018-08-11T10:32:07.235Z,21.41
2018-08-11T10:34:35.785Z,21.97
2018-08-11T10:37:04.691Z,22.24
2018-08-11T10:39:33.911Z,21.11
2018-08-11T10:42:02.881Z,21.99
2018-08-11T10:44:31.870Z,22.41
2018-08-11T10:47:01.150Z,22.41
2018-08-11T10:49:29.997Z,22.20
2018-08-11T10:51:58.917Z,22.39
2018-08-11T10:54:27.516Z,22.10
2018-08-11T10:56:56.055Z,22.43
2018-08-11T10:59:25.370Z,22.43
2018-08-11T11:01:54.144Z,22.62
2018-08-11T11:04:23.169Z,22.74
2018-08-11T11:06:52.609Z,21.62
2018-08-11T11:09:21.142Z,21.90
2018-08-11T11:11:49.749Z,22.58
2018-08-11T11:14:19.175Z,22.98
2018-08-11T11:16:47.733Z,22.24
2018-08-11T11:19:16.276Z,21.62
2018-08-11T11:21:44.844Z,21.79
2018-08-11T11:24:13.795Z,21.54
2018-08-11T11:26:42.779Z,21.73
2018-08-11T11:29:11.317Z,22.59
2018-08-11T11:31:40.189Z,23.23
2018-08-11T11:34:09.177Z,23.93
2018-08-11T11:36:38.090Z,23.43
2018-08-11T11:39:08.707Z,23.18
2018-08-11T11:41:37.861Z,23.01
2018-08-11T11:44:06.904Z,22.96
2018-08-11T11:46:36.148Z,21.61
2018-08-11T11:49:05.634Z,21.90
2018-08-11T11:51:34.187Z,22.80
2018-08-11T11:54:02.967Z,23.09
2018-08-11T11:56:31.489Z,23.43
2018-08-11T11:59:00.071Z,23.31
2018-08-11T12:01:28.891Z,23.33
2018-08-11T12:03:57.485Z,22.32
2018-08-11T12:06:26.287Z,23.19
2018-08-11T12:08:55.688Z,23.46
2018-08-11T12:11:25.245Z,24.11
2018-08-11T12:13:54.228Z,23.42
2018-08-11T12:16:22.953Z,23.65
2018-08-11T12:18:51.511Z,23.96
2018-08-11T12:21:21.058Z,24.43
2018-08-11T12:23:49.656Z,24.42
2018-08-11T12:26:18.545Z,24.17
2018-08-11T12:28:48.077Z,23.43
2018-08-11T12:31:17.036Z,22.81
2018-08-11T12:33:46.709Z,22.64
2018-08-11T12:36:15.543Z,22.38
2018-08-11T12:38:44.078Z,22.92
2018-08-11T12:41:13.238Z,23.56
2018-08-11T12:43:41.813Z,23.26
2018-08-11T12:46:10.361Z,23.55
2018-08-11T12:48:38.930Z,23.72
2018-08-11T12:51:08.685Z,23.78
2018-08-11T12:53:37.486Z,23.29
2018-08-11T12:56:06.185Z,23.22
2018-08-11T12:58:35.542Z,24.07
2018-08-11T13:01:04.140Z,23.99
2018-08-11T13:03:32.734Z,24.10
2018-08-11T13:06:02.019Z,24.26
2018-08-11T13:08:30.867Z,23.50
2018-08-11T13:10:59.480Z,23.70
2018-08-11T13:13:28.089Z,23.14
2018-08-11T13:15:56.648Z,24.17
2018-08-11T13:18:26.113Z,23.87
2018-08-11T13:20:55.936Z,24.66
2018-08-11T13:23:24.467Z,24.76
2018-08-11T13:25:53.027Z,24.00
2018-08-11T13:28:21.556Z,24.17
2018-08-11T13:30:50.124Z,24.27
2018-08-11T13:33:19.864Z,24.35
2018-08-11T13:35:48.411Z,23.88
2018-08-11T13:38:17.581Z,24.70
2018-08-11T13:40:46.365Z,24.31
2018-08-11T13:43:15.309Z,23.85
2018-08-11T13:45:43.957Z,24.19
2018-08-11T13:48:12.888Z,24.42
2018-08-11T13:50:41.532Z,24.12
2018-08-11T13:53:10.368Z,24.25
2018-08-11T13:55:39.324Z,24.59
2018-08-11T13:58:07.884Z,25.11
2018-08-11T14:00:37.593Z,24.23
2018-08-11T14:03:06.526Z,24.44
2018-08-11T14:05:35.299Z,25.11
2018-08-11T14:08:04.276Z,25.03
2018-08-11T14:10:32.871Z,24.36
2018-08-11T14:13:01.402Z,24.82
2018-08-11T14:15:29.999Z,25.89
2018-08-11T14:17:58.518Z,25.83
2018-08-11T14:20:27.826Z,25.54
2018-08-11T14:22:56.345Z,25.42
2018-08-11T14:25:25.697Z,25.71
2018-08-11T14:27:54.274Z,25.40
2018-08-11T14:30:23.193Z,25.42
2018-08-11T14:32:51.765Z,24.59
2018-08-11T14:35:20.297Z,24.17
2018-08-11T14:37:49.151Z,25.35
2018-08-11T14:40:18.092Z,25.65
2018-08-11T14:42:49.108Z,25.65
2018-08-11T14:45:17.673Z,26.04
2018-08-11T14:47:46.232Z,25.57
2018-08-11T14:50:14.819Z,25.60
2018-08-11T14:52:43.873Z,25.65
2018-08-11T14:55:13.202Z,25.71
2018-08-11T14:57:42.301Z,25.84
2018-08-11T15:00:13.167Z,25.59
2018-08-11T15:02:42.285Z,25.98
2018-08-11T15:05:11.529Z,25.96
2018-08-11T15:07:40.145Z,26.15
2018-08-11T15:10:09.660Z,25.90
2018-08-11T15:12:38.287Z,25.92
2018-08-11T15:15:07.827Z,25.34
2018-08-11T15:17:37.397Z,25.66
2018-08-11T15:20:06.741Z,25.50
2018-08-11T15:22:35.310Z,25.67
2018-08-11T15:25:04.744Z,25.52
2018-08-11T15:27:34.297Z,25.43
2018-08-11T15:30:02.876Z,25.47
2018-08-11T15:32:31.558Z,25.72
2018-08-11T15:35:00.454Z,26.20
2018-08-11T15:37:30.057Z,26.88
2018-08-11T15:39:58.661Z,26.45
2018-08-11T15:42:27.350Z,26.55
2018-08-11T15:44:55.913Z,26.19
2018-08-11T15:47:25.037Z,25.65
2018-08-11T15:49:53.660Z,24.96
2018-08-11T15:52:22.239Z,24.98
2018-08-11T15:54:50.768Z,25.69
2018-08-11T15:57:19.674Z,26.13
2018-08-11T15:59:49.067Z,26.06
2018-08-11T16:02:18.439Z,26.19
2018-08-11T16:04:46.992Z,25.96
2018-08-11T16:07:15.552Z,26.04
2018-08-11T16:09:44.298Z,25.81
2018-08-11T16:12:12.865Z,25.40
2018-08-11T16:14:41.415Z,25.77
2018-08-11T16:17:10.006Z,26.11
2018-08-11T16:19:38.552Z,26.15
2018-08-11T16:22:07.574Z,25.96
2018-08-11T16:24:36.108Z,26.23
2018-08-11T16:27:05.991Z,26.07
2018-08-11T16:29:34.585Z,26.21
2018-08-11T16:32:04.109Z,26.50
2018-08-11T16:34:33.259Z,26.67
2018-08-11T16:37:01.829Z,26.68
2018-08-11T16:39:30.439Z,26.94
2018-08-11T16:41:58.984Z,26.98
2018-08-11T16:44:27.850Z,27.62
2018-08-11T16:46:57.112Z,27.60
2018-08-11T16:49:25.920Z,27.70
2018-08-11T16:51:54.638Z,26.93
2018-08-11T16:54:24.918Z,26.78
2018-08-11T16:56:53.939Z,26.64
2018-08-11T16:59:22.510Z,26.31
2018-08-11T17:01:51.051Z,25.89
2018-08-11T17:04:19.567Z,26.10
2018-08-11T17:06:51.321Z,26.08
2018-08-11T17:09:19.918Z,26.06
2018-08-11T17:11:48.769Z,25.80
2018-08-11T17:14:17.797Z,25.75
2018-08-11T17:16:46.403Z,25.36
2018-08-11T17:19:14.989Z,25.73
2018-08-11T17:21:43.566Z,25.71
2018-08-11T17:24:12.089Z,26.34
2018-08-11T17:26:40.694Z,26.40
2018-08-11T17:29:09.565Z,26.37
2018-08-11T17:31:38.144Z,26.31
2018-08-11T17:34:06.995Z,26.00
2018-08-11T17:36:35.570Z,25.94
2018-08-11T17:39:04.835Z,25.77
2018-08-11T17:41:33.395Z,25.58
2018-08-11T17:44:03.467Z,25.77
2018-08-11T17:46:32.041Z,25.63
2018-08-11T17:49:02.001Z,25.50
2018-08-11T17:51:30.536Z,25.21
2018-08-11T17:53:59.386Z,24.85
2018-08-11T17:56:28.033Z,24.67
2018-08-11T17:58:56.588Z,24.77
2018-08-11T18:01:25.704Z,24.52
2018-08-11T18:03:55.189Z,24.55
2018-08-11T18:06:24.411Z,24.51
2018-08-11T18:08:53.261Z,24.47
2018-08-11T18:11:21.849Z,24.33
2018-08-11T18:13:50.391Z,24.56
2018-08-11T18:16:19.119Z,24.74
2018-08-11T18:18:47.897Z,24.89
2018-08-11T18:21:17.620Z,25.10
2018-08-11T18:23:46.165Z,24.85
2018-08-11T18:26:14.744Z,24.77
2018-08-11T18:28:43.648Z,24.71
2018-08-11T18:31:12.232Z,24.54
2018-08-11T18:33:41.840Z,24.27
2018-08-11T18:36:10.696Z,24.19
2018-08-11T18:38:39.280Z,24.04
2018-08-11T18:41:07.850Z,23.79
2018-08-11T18:43:36.414Z,23.76
2018-08-11T18:46:06.022Z,23.72
2018-08-11T18:48:34.983Z,23.61
2018-08-11T18:51:07.837Z,23.58
2018-08-11T18:53:36.507Z,23.49
2018-08-11T18:56:05.486Z,23.47
2018-08-11T18:58:34.391Z,23.42
2018-08-11T19:01:02.986Z,23.41
2018-08-11T19:03:32.085Z,23.27
2018-08-11T19:06:00.691Z,23.31
2018-08-11T19:08:29.525Z,23.10
2018-08-11T19:10:58.063Z,22.92
2018-08-11T19:13:26.920Z,22.74
2018-08-11T19:15:55.496Z,22.62
2018-08-11T19:18:24.136Z,22.63
2018-08-11T19:20:52.670Z,22.52
2018-08-11T19:23:21.316Z,22.34
2018-08-11T19:25:50.155Z,22.39
2018-08-11T19:28:18.727Z,22.25
2018-08-11T19:30:47.927Z,22.16
2018-08-11T19:33:16.935Z,22.02
2018-08-11T19:35:46.484Z,21.99
2018-08-11T19:38:15.097Z,21.84
2018-08-11T19:40:43.692Z,21.85
2018-08-11T19:43:12.943Z,21.71
2018-08-11T19:45:41.851Z,21.63
2018-08-11T19:48:11.070Z,21.54
2018-08-11T19:50:39.631Z,21.39
2018-08-11T19:53:08.266Z,21.14
2018-08-11T19:55:37.101Z,21.15
2018-08-11T19:58:05.703Z,21.18
2018-08-11T20:00:34.628Z,21.04
2018-08-11T20:03:03.555Z,20.88
2018-08-11T20:05:32.141Z,20.72
2018-08-11T20:08:02.275Z,20.63
2018-08-11T20:10:30.876Z,20.74
2018-08-11T20:13:00.819Z,20.69
2018-08-11T20:15:29.394Z,20.52
2018-08-11T20:17:57.931Z,20.48
2018-08-11T20:20:26.523Z,20.41
2018-08-11T20:22:55.380Z,20.32
2018-08-11T20:25:24.435Z,20.18
2018-08-11T20:27:52.927Z,20.14
2018-08-11T20:30:21.470Z,20.06
2018-08-11T20:32:50.565Z,19.89
2018-08-11T20:35:19.129Z,19.92
2018-08-11T20:37:47.678Z,19.77
2018-08-11T20:40:16.249Z,19.80
2018-08-11T20:42:44.831Z,19.83
2018-08-11T20:45:14.009Z,19.73
2018-08-11T20:47:42.806Z,19.61
2018-08-11T20:50:11.394Z,19.75
2018-08-11T20:52:39.972Z,19.57
2018-08-11T20:55:09.075Z,19.58
2018-08-11T20:57:38.030Z,19.51
2018-08-11T21:00:09.917Z,19.40
2018-08-11T21:02:38.503Z,19.27
2018-08-11T21:05:09.696Z,19.21
2018-08-11T21:07:39.507Z,19.24
2018-08-11T21:10:11.189Z,18.99
2018-08-11T21:12:41.425Z,19.11
2018-08-11T21:15:12.350Z,19.06
2018-08-11T21:17:40.959Z,18.77
2018-08-11T21:20:12.526Z,18.74
2018-08-11T21:22:41.516Z,18.84
2018-08-11T21:25:11.388Z,18.57
2018-08-11T21:27:40.368Z,18.70
2018-08-11T21:30:11.782Z,18.45
2018-08-11T21:32:40.302Z,18.51
2018-08-11T21:35:08.911Z,18.51
2018-08-11T21:37:38.255Z,18.47
2018-08-11T21:40:09.855Z,18.55
2018-08-11T21:42:38.463Z,18.63
2018-08-11T21:45:08.225Z,18.68
2018-08-11T21:47:37.221Z,18.86
2018-08-11T21:50:06.224Z,18.94
2018-08-11T21:52:36.048Z,18.91
2018-08-11T21:55:05.033Z,18.84
2018-08-11T21:57:33.892Z,19.00
2018-08-11T22:00:02.505Z,18.83
2018-08-11T22:02:31.103Z,18.59
2018-08-11T22:04:59.725Z,18.48
2018-08-11T22:07:28.304Z,18.32
2018-08-11T22:09:57.399Z,18.07
2018-08-11T22:12:25.973Z,17.84
2018-08-11T22:14:54.629Z,17.77
2018-08-11T22:17:23.594Z,17.57
2018-08-11T22:19:54.034Z,17.70
2018-08-11T22:22:22.565Z,18.11
2018-08-11T22:24:51.299Z,18.13
2018-08-11T22:27:19.850Z,18.05
2018-08-11T22:29:48.427Z,17.85
2018-08-11T22:32:17.045Z,17.69
2018-08-11T22:34:45.859Z,17.52
2018-08-11T22:37:14.417Z,17.43
2018-08-11T22:39:43.376Z,17.42
2018-08-11T22:42:12.071Z,17.33
2018-08-11T22:44:40.617Z,17.41
2018-08-11T22:47:09.662Z,17.07
2018-08-11T22:49:38.184Z,16.56
2018-08-11T22:52:07.009Z,16.74
2018-08-11T22:54:35.952Z,16.79
2018-08-11T22:57:04.762Z,16.65
2018-08-11T22:59:33.591Z,16.76
2018-08-11T23:02:02.235Z,16.49
2018-08-11T23:04:31.146Z,16.40
2018-08-11T23:07:00.357Z,16.50
2018-08-11T23:09:29.195Z,16.60
2018-08-11T23:11:57.798Z,16.22
2018-08-11T23:14:28.271Z,16.26
2018-08-11T23:16:56.824Z,16.22
2018-08-11T23:19:25.346Z,16.36
2018-08-11T23:21:54.619Z,16.42
2018-08-11T23:24:23.200Z,16.31
2018-08-11T23:26:52.482Z,16.22
2018-08-11T23:29:21.067Z,16.27
2018-08-11T23:31:50.561Z,16.34
2018-08-11T23:34:20.303Z,16.31
2018-08-11T23:36:48.911Z,16.33
2018-08-11T23:39:18.505Z,16.22
2018-08-11T23:41:47.063Z,16.03
2018-08-11T23:44:15.617Z,15.94
2018-08-11T23:46:44.988Z,15.94
2018-08-11T23:49:13.519Z,15.88
2018-08-11T23:51:43.352Z,15.92
2018-08-11T23:54:12.728Z,15.80
2018-08-11T23:56:41.498Z,15.87
2018-08-11T23:59:10.424Z,15.86
